sensor_id;sensor_type;location;lat;lon;timestamp;P1;durP1;ratioP1;P2;durP2;ratioP2
70829;SDS011;58451;51.550;7.208;2022-09-09T00:04:27;2.30;;;0.30;;
70829;SDS011;58451;51.550;7.208;2022-09-09T00:09:46;2.40;;;0.30;;
70829;SDS011;58451;51.550;7.208;2022-09-09T00:12:36;1.20;;;0.30;;
70829;SDS011;58451;51.550;7.208;2022-09-09T00:15:22;2.20;;;0.20;;
70829;SDS011;58451;51.550;7.208;2022-09-09T00:18:26;2.00;;;0.30;;
70829;SDS011;58451;51.550;7.208;2022-09-09T00:21:16;3.30;;;0.50;;
70829;SDS011;58451;51.550;7.208;2022-09-09T00:23:50;2.50;;;0.50;;
70829;SDS011;58451;51.550;7.208;2022-09-09T00:31:35;2.10;;;0.40;;
70829;SDS011;58451;51.550;7.208;2022-09-09T00:34:27;1.10;;;0.20;;
70829;SDS011;58451;51.550;7.208;2022-09-09T00:36:56;1.60;;;0.30;;
70829;SDS011;58451;51.550;7.208;2022-09-09T00:39:34;1.90;;;0.30;;
70829;SDS011;58451;51.550;7.208;2022-09-09T00:48:07;3.40;;;0.40;;
70829;SDS011;58451;51.550;7.208;2022-09-09T00:50:53;1.90;;;0.40;;
70829;SDS011;58451;51.550;7.208;2022-09-09T00:56:12;1.00;;;0.20;;
70829;SDS011;58451;51.550;7.208;2022-09-09T01:01:30;2.00;;;0.30;;
70829;SDS011;58451;51.550;7.208;2022-09-09T01:03:57;3.20;;;0.30;;
70829;SDS011;58451;51.550;7.208;2022-09-09T01:06:30;2.50;;;0.20;;
70829;SDS011;58451;51.550;7.208;2022-09-09T01:12:15;2.50;;;0.30;;
70829;SDS011;58451;51.550;7.208;2022-09-09T01:14:51;3.60;;;0.30;;
70829;SDS011;58451;51.550;7.208;2022-09-09T01:17:33;1.50;;;0.30;;
70829;SDS011;58451;51.550;7.208;2022-09-09T01:20:15;1.50;;;0.20;;
70829;SDS011;58451;51.550;7.208;2022-09-09T01:26:29;1.20;;;0.30;;
70829;SDS011;58451;51.550;7.208;2022-09-09T01:29:08;2.30;;;0.30;;
70829;SDS011;58451;51.550;7.208;2022-09-09T01:34:27;2.50;;;0.40;;
70829;SDS011;58451;51.550;7.208;2022-09-09T01:39:33;3.70;;;0.50;;
70829;SDS011;58451;51.550;7.208;2022-09-09T01:42:09;3.80;;;0.70;;
70829;SDS011;58451;51.550;7.208;2022-09-09T01:44:39;2.20;;;0.40;;
70829;SDS011;58451;51.550;7.208;2022-09-09T01:47:07;1.80;;;0.50;;
70829;SDS011;58451;51.550;7.208;2022-09-09T01:49:48;2.90;;;0.60;;
70829;SDS011;58451;51.550;7.208;2022-09-09T01:52:20;2.90;;;0.70;;
70829;SDS011;58451;51.550;7.208;2022-09-09T01:54:48;3.40;;;0.70;;
70829;SDS011;58451;51.550;7.208;2022-09-09T01:57:33;4.40;;;0.90;;
70829;SDS011;58451;51.550;7.208;2022-09-09T02:00:15;4.40;;;0.70;;
70829;SDS011;58451;51.550;7.208;2022-09-09T02:09:00;4.80;;;1.00;;
70829;SDS011;58451;51.550;7.208;2022-09-09T02:11:32;3.70;;;0.80;;
70829;SDS011;58451;51.550;7.208;2022-09-09T02:14:12;3.80;;;1.00;;
70829;SDS011;58451;51.550;7.208;2022-09-09T02:17:07;5.30;;;1.10;;
70829;SDS011;58451;51.550;7.208;2022-09-09T02:20:10;4.00;;;1.10;;
70829;SDS011;58451;51.550;7.208;2022-09-09T02:22:50;6.70;;;1.20;;
70829;SDS011;58451;51.550;7.208;2022-09-09T02:25:22;4.80;;;1.10;;
70829;SDS011;58451;51.550;7.208;2022-09-09T02:27:56;5.30;;;1.10;;
70829;SDS011;58451;51.550;7.208;2022-09-09T02:30:29;6.10;;;1.10;;
70829;SDS011;58451;51.550;7.208;2022-09-09T02:33:03;4.70;;;1.10;;
70829;SDS011;58451;51.550;7.208;2022-09-09T02:35:45;3.30;;;1.10;;
70829;SDS011;58451;51.550;7.208;2022-09-09T02:38:21;3.00;;;0.90;;
70829;SDS011;58451;51.550;7.208;2022-09-09T02:40:57;4.70;;;1.20;;
70829;SDS011;58451;51.550;7.208;2022-09-09T02:43:34;6.00;;;1.00;;
70829;SDS011;58451;51.550;7.208;2022-09-09T02:49:56;4.40;;;0.90;;
70829;SDS011;58451;51.550;7.208;2022-09-09T02:52:36;3.80;;;1.30;;
70829;SDS011;58451;51.550;7.208;2022-09-09T02:55:21;5.40;;;1.40;;
70829;SDS011;58451;51.550;7.208;2022-09-09T02:57:59;3.10;;;1.30;;
70829;SDS011;58451;51.550;7.208;2022-09-09T03:00:29;3.60;;;1.30;;
70829;SDS011;58451;51.550;7.208;2022-09-09T03:03:00;6.00;;;1.40;;
70829;SDS011;58451;51.550;7.208;2022-09-09T03:05:27;4.20;;;1.20;;
70829;SDS011;58451;51.550;7.208;2022-09-09T03:07:54;4.20;;;1.10;;
70829;SDS011;58451;51.550;7.208;2022-09-09T03:10:22;5.00;;;1.50;;
70829;SDS011;58451;51.550;7.208;2022-09-09T03:12:48;5.50;;;1.20;;
70829;SDS011;58451;51.550;7.208;2022-09-09T03:15:17;6.80;;;1.60;;
70829;SDS011;58451;51.550;7.208;2022-09-09T03:17:44;3.80;;;1.20;;
70829;SDS011;58451;51.550;7.208;2022-09-09T03:20:12;4.00;;;1.10;;
70829;SDS011;58451;51.550;7.208;2022-09-09T03:22:39;6.30;;;1.40;;
70829;SDS011;58451;51.550;7.208;2022-09-09T03:25:07;6.20;;;1.30;;
70829;SDS011;58451;51.550;7.208;2022-09-09T03:27:35;4.20;;;1.20;;
70829;SDS011;58451;51.550;7.208;2022-09-09T03:30:04;5.00;;;1.10;;
70829;SDS011;58451;51.550;7.208;2022-09-09T03:32:31;4.60;;;1.10;;
70829;SDS011;58451;51.550;7.208;2022-09-09T03:34:58;5.90;;;1.10;;
70829;SDS011;58451;51.550;7.208;2022-09-09T03:37:25;5.00;;;1.20;;
70829;SDS011;58451;51.550;7.208;2022-09-09T03:39:52;4.90;;;1.00;;
70829;SDS011;58451;51.550;7.208;2022-09-09T03:42:22;4.80;;;1.00;;
70829;SDS011;58451;51.550;7.208;2022-09-09T03:44:50;2.30;;;0.50;;
70829;SDS011;58451;51.550;7.208;2022-09-09T03:47:21;4.70;;;1.00;;
70829;SDS011;58451;51.550;7.208;2022-09-09T03:49:50;6.00;;;0.80;;
70829;SDS011;58451;51.550;7.208;2022-09-09T03:52:18;6.30;;;0.90;;
70829;SDS011;58451;51.550;7.208;2022-09-09T03:54:50;3.80;;;0.70;;
70829;SDS011;58451;51.550;7.208;2022-09-09T03:57:20;2.20;;;0.60;;
70829;SDS011;58451;51.550;7.208;2022-09-09T03:59:48;4.30;;;0.70;;
70829;SDS011;58451;51.550;7.208;2022-09-09T04:02:15;3.70;;;0.90;;
70829;SDS011;58451;51.550;7.208;2022-09-09T04:04:43;3.00;;;0.90;;
70829;SDS011;58451;51.550;7.208;2022-09-09T04:07:10;3.70;;;0.70;;
70829;SDS011;58451;51.550;7.208;2022-09-09T04:09:40;5.80;;;0.80;;
70829;SDS011;58451;51.550;7.208;2022-09-09T04:12:07;3.70;;;0.80;;
70829;SDS011;58451;51.550;7.208;2022-09-09T04:14:40;4.30;;;0.80;;
70829;SDS011;58451;51.550;7.208;2022-09-09T04:17:07;4.20;;;1.10;;
70829;SDS011;58451;51.550;7.208;2022-09-09T04:19:34;3.90;;;0.60;;
70829;SDS011;58451;51.550;7.208;2022-09-09T04:22:01;3.00;;;0.70;;
70829;SDS011;58451;51.550;7.208;2022-09-09T04:24:29;4.10;;;0.80;;
70829;SDS011;58451;51.550;7.208;2022-09-09T04:26:58;5.40;;;0.70;;
70829;SDS011;58451;51.550;7.208;2022-09-09T04:29:25;4.60;;;0.70;;
70829;SDS011;58451;51.550;7.208;2022-09-09T04:31:52;3.60;;;0.70;;
70829;SDS011;58451;51.550;7.208;2022-09-09T04:34:19;4.40;;;0.80;;
70829;SDS011;58451;51.550;7.208;2022-09-09T04:36:48;8.00;;;1.80;;
70829;SDS011;58451;51.550;7.208;2022-09-09T04:39:15;5.20;;;0.90;;
70829;SDS011;58451;51.550;7.208;2022-09-09T04:41:43;5.60;;;1.00;;
70829;SDS011;58451;51.550;7.208;2022-09-09T04:44:11;2.20;;;0.80;;
70829;SDS011;58451;51.550;7.208;2022-09-09T04:46:38;6.30;;;0.80;;
70829;SDS011;58451;51.550;7.208;2022-09-09T04:49:07;4.10;;;0.80;;
70829;SDS011;58451;51.550;7.208;2022-09-09T04:51:41;6.80;;;0.70;;
70829;SDS011;58451;51.550;7.208;2022-09-09T04:54:09;6.10;;;0.80;;
70829;SDS011;58451;51.550;7.208;2022-09-09T04:56:40;4.30;;;0.90;;
70829;SDS011;58451;51.550;7.208;2022-09-09T05:02:39;6.60;;;1.00;;
70829;SDS011;58451;51.550;7.208;2022-09-09T05:05:13;4.90;;;0.80;;
70829;SDS011;58451;51.550;7.208;2022-09-09T05:07:50;4.20;;;0.90;;
70829;SDS011;58451;51.550;7.208;2022-09-09T05:13:39;6.90;;;0.80;;
70829;SDS011;58451;51.550;7.208;2022-09-09T05:16:07;4.10;;;0.80;;
70829;SDS011;58451;51.550;7.208;2022-09-09T05:18:40;5.80;;;0.90;;
70829;SDS011;58451;51.550;7.208;2022-09-09T05:21:17;4.50;;;0.80;;
70829;SDS011;58451;51.550;7.208;2022-09-09T05:23:47;11.40;;;1.20;;
70829;SDS011;58451;51.550;7.208;2022-09-09T05:26:23;5.40;;;0.90;;
70829;SDS011;58451;51.550;7.208;2022-09-09T05:28:51;4.60;;;1.00;;
70829;SDS011;58451;51.550;7.208;2022-09-09T05:31:19;4.50;;;0.80;;
70829;SDS011;58451;51.550;7.208;2022-09-09T05:33:49;5.40;;;1.20;;
70829;SDS011;58451;51.550;7.208;2022-09-09T05:36:20;5.40;;;1.10;;
70829;SDS011;58451;51.550;7.208;2022-09-09T05:38:52;7.70;;;1.20;;
70829;SDS011;58451;51.550;7.208;2022-09-09T05:41:26;4.60;;;0.90;;
70829;SDS011;58451;51.550;7.208;2022-09-09T05:43:54;5.90;;;1.10;;
70829;SDS011;58451;51.550;7.208;2022-09-09T05:46:27;7.10;;;1.20;;
70829;SDS011;58451;51.550;7.208;2022-09-09T05:48:57;5.50;;;0.90;;
70829;SDS011;58451;51.550;7.208;2022-09-09T05:51:28;4.00;;;1.00;;
70829;SDS011;58451;51.550;7.208;2022-09-09T05:54:04;5.30;;;1.10;;
70829;SDS011;58451;51.550;7.208;2022-09-09T05:56:34;5.50;;;1.00;;
70829;SDS011;58451;51.550;7.208;2022-09-09T05:59:01;7.50;;;1.00;;
70829;SDS011;58451;51.550;7.208;2022-09-09T06:01:32;6.60;;;0.90;;
70829;SDS011;58451;51.550;7.208;2022-09-09T06:04:14;6.20;;;0.90;;
70829;SDS011;58451;51.550;7.208;2022-09-09T06:06:44;8.30;;;1.80;;
70829;SDS011;58451;51.550;7.208;2022-09-09T06:09:14;4.30;;;1.00;;
70829;SDS011;58451;51.550;7.208;2022-09-09T06:11:42;4.80;;;1.20;;
70829;SDS011;58451;51.550;7.208;2022-09-09T06:14:10;3.70;;;0.80;;
70829;SDS011;58451;51.550;7.208;2022-09-09T06:16:38;5.40;;;1.00;;
70829;SDS011;58451;51.550;7.208;2022-09-09T06:19:14;6.70;;;1.10;;
70829;SDS011;58451;51.550;7.208;2022-09-09T06:21:41;7.20;;;1.20;;
70829;SDS011;58451;51.550;7.208;2022-09-09T06:24:12;9.00;;;1.00;;
70829;SDS011;58451;51.550;7.208;2022-09-09T06:26:40;9.50;;;1.20;;
70829;SDS011;58451;51.550;7.208;2022-09-09T06:29:10;5.00;;;1.10;;
70829;SDS011;58451;51.550;7.208;2022-09-09T06:31:41;6.20;;;0.90;;
70829;SDS011;58451;51.550;7.208;2022-09-09T06:34:13;5.40;;;0.90;;
70829;SDS011;58451;51.550;7.208;2022-09-09T06:36:43;4.40;;;0.80;;
70829;SDS011;58451;51.550;7.208;2022-09-09T06:39:17;6.60;;;0.90;;
70829;SDS011;58451;51.550;7.208;2022-09-09T06:41:49;3.60;;;1.10;;
70829;SDS011;58451;51.550;7.208;2022-09-09T06:44:59;5.90;;;1.00;;
70829;SDS011;58451;51.550;7.208;2022-09-09T06:47:35;5.40;;;0.90;;
70829;SDS011;58451;51.550;7.208;2022-09-09T06:50:02;2.90;;;0.70;;
70829;SDS011;58451;51.550;7.208;2022-09-09T06:52:31;6.40;;;1.00;;
70829;SDS011;58451;51.550;7.208;2022-09-09T06:54:58;4.40;;;1.00;;
70829;SDS011;58451;51.550;7.208;2022-09-09T06:57:34;4.30;;;0.90;;
70829;SDS011;58451;51.550;7.208;2022-09-09T07:00:23;4.30;;;0.70;;
70829;SDS011;58451;51.550;7.208;2022-09-09T07:02:51;4.30;;;0.80;;
70829;SDS011;58451;51.550;7.208;2022-09-09T07:05:20;7.10;;;1.00;;
70829;SDS011;58451;51.550;7.208;2022-09-09T07:07:48;5.90;;;1.10;;
70829;SDS011;58451;51.550;7.208;2022-09-09T07:10:17;7.30;;;1.30;;
70829;SDS011;58451;51.550;7.208;2022-09-09T07:12:44;4.50;;;0.90;;
70829;SDS011;58451;51.550;7.208;2022-09-09T07:15:13;7.10;;;1.20;;
70829;SDS011;58451;51.550;7.208;2022-09-09T07:17:44;5.40;;;0.80;;
70829;SDS011;58451;51.550;7.208;2022-09-09T07:20:11;5.60;;;1.00;;
70829;SDS011;58451;51.550;7.208;2022-09-09T07:22:39;4.60;;;0.90;;
70829;SDS011;58451;51.550;7.208;2022-09-09T07:25:09;4.10;;;0.70;;
70829;SDS011;58451;51.550;7.208;2022-09-09T07:27:36;5.70;;;0.90;;
70829;SDS011;58451;51.550;7.208;2022-09-09T07:30:06;4.30;;;0.80;;
70829;SDS011;58451;51.550;7.208;2022-09-09T07:32:34;5.70;;;0.70;;
70829;SDS011;58451;51.550;7.208;2022-09-09T07:35:01;5.50;;;0.70;;
70829;SDS011;58451;51.550;7.208;2022-09-09T07:37:36;4.00;;;0.90;;
70829;SDS011;58451;51.550;7.208;2022-09-09T07:40:04;6.30;;;0.70;;
70829;SDS011;58451;51.550;7.208;2022-09-09T07:42:35;3.80;;;0.70;;
70829;SDS011;58451;51.550;7.208;2022-09-09T07:45:11;4.40;;;0.70;;
70829;SDS011;58451;51.550;7.208;2022-09-09T07:47:40;6.60;;;0.70;;
70829;SDS011;58451;51.550;7.208;2022-09-09T07:50:10;5.20;;;0.80;;
70829;SDS011;58451;51.550;7.208;2022-09-09T07:52:40;4.90;;;0.80;;
70829;SDS011;58451;51.550;7.208;2022-09-09T07:55:07;4.80;;;0.50;;
70829;SDS011;58451;51.550;7.208;2022-09-09T07:57:36;3.90;;;0.60;;
70829;SDS011;58451;51.550;7.208;2022-09-09T08:00:04;3.80;;;0.80;;
70829;SDS011;58451;51.550;7.208;2022-09-09T08:02:41;4.50;;;0.80;;
70829;SDS011;58451;51.550;7.208;2022-09-09T08:05:08;5.90;;;0.80;;
70829;SDS011;58451;51.550;7.208;2022-09-09T08:07:38;3.50;;;0.80;;
70829;SDS011;58451;51.550;7.208;2022-09-09T08:10:05;5.00;;;0.90;;
70829;SDS011;58451;51.550;7.208;2022-09-09T08:12:36;5.40;;;0.80;;
70829;SDS011;58451;51.550;7.208;2022-09-09T08:15:11;6.70;;;0.90;;
70829;SDS011;58451;51.550;7.208;2022-09-09T08:17:42;4.20;;;0.80;;
70829;SDS011;58451;51.550;7.208;2022-09-09T08:20:12;4.60;;;0.80;;
70829;SDS011;58451;51.550;7.208;2022-09-09T08:22:39;5.50;;;0.80;;
70829;SDS011;58451;51.550;7.208;2022-09-09T08:25:07;4.90;;;0.70;;
70829;SDS011;58451;51.550;7.208;2022-09-09T08:27:37;3.00;;;0.70;;
70829;SDS011;58451;51.550;7.208;2022-09-09T08:30:05;5.60;;;1.00;;
70829;SDS011;58451;51.550;7.208;2022-09-09T08:32:33;4.60;;;0.80;;
70829;SDS011;58451;51.550;7.208;2022-09-09T08:35:04;4.40;;;0.80;;
70829;SDS011;58451;51.550;7.208;2022-09-09T08:37:33;4.00;;;0.60;;
70829;SDS011;58451;51.550;7.208;2022-09-09T08:40:02;4.90;;;0.90;;
70829;SDS011;58451;51.550;7.208;2022-09-09T08:42:38;6.90;;;1.00;;
70829;SDS011;58451;51.550;7.208;2022-09-09T08:49:22;5.50;;;0.80;;
70829;SDS011;58451;51.550;7.208;2022-09-09T08:52:57;3.20;;;0.80;;
70829;SDS011;58451;51.550;7.208;2022-09-09T08:55:43;6.90;;;1.30;;
70829;SDS011;58451;51.550;7.208;2022-09-09T08:58:35;6.20;;;1.30;;
70829;SDS011;58451;51.550;7.208;2022-09-09T09:16:45;4.90;;;1.10;;
70829;SDS011;58451;51.550;7.208;2022-09-09T09:19:16;4.30;;;0.90;;
70829;SDS011;58451;51.550;7.208;2022-09-09T09:21:54;5.40;;;1.10;;
70829;SDS011;58451;51.550;7.208;2022-09-09T09:30:25;6.10;;;1.10;;
70829;SDS011;58451;51.550;7.208;2022-09-09T09:33:12;6.40;;;1.30;;
70829;SDS011;58451;51.550;7.208;2022-09-09T09:35:58;4.90;;;1.10;;
70829;SDS011;58451;51.550;7.208;2022-09-09T09:38:27;6.50;;;1.10;;
70829;SDS011;58451;51.550;7.208;2022-09-09T09:41:33;5.60;;;1.00;;
70829;SDS011;58451;51.550;7.208;2022-09-09T09:44:30;5.10;;;1.00;;
70829;SDS011;58451;51.550;7.208;2022-09-09T09:50:16;4.40;;;1.30;;
70829;SDS011;58451;51.550;7.208;2022-09-09T09:52:58;6.00;;;1.30;;
70829;SDS011;58451;51.550;7.208;2022-09-09T09:55:36;4.40;;;0.90;;
70829;SDS011;58451;51.550;7.208;2022-09-09T09:58:20;4.20;;;0.90;;
70829;SDS011;58451;51.550;7.208;2022-09-09T10:00:49;7.70;;;1.20;;
70829;SDS011;58451;51.550;7.208;2022-09-09T10:03:30;7.50;;;1.50;;
70829;SDS011;58451;51.550;7.208;2022-09-09T10:05:59;4.90;;;1.10;;
70829;SDS011;58451;51.550;7.208;2022-09-09T10:08:44;4.20;;;0.90;;
70829;SDS011;58451;51.550;7.208;2022-09-09T10:23:20;3.90;;;0.90;;
70829;SDS011;58451;51.550;7.208;2022-09-09T10:25:58;4.60;;;1.00;;
70829;SDS011;58451;51.550;7.208;2022-09-09T10:38:40;6.20;;;1.00;;
70829;SDS011;58451;51.550;7.208;2022-09-09T10:54:30;4.90;;;1.10;;
70829;SDS011;58451;51.550;7.208;2022-09-09T11:00:49;4.50;;;1.00;;
70829;SDS011;58451;51.550;7.208;2022-09-09T11:03:26;4.00;;;0.80;;
70829;SDS011;58451;51.550;7.208;2022-09-09T11:06:06;3.30;;;0.80;;
70829;SDS011;58451;51.550;7.208;2022-09-09T11:08:42;4.00;;;0.80;;
70829;SDS011;58451;51.550;7.208;2022-09-09T11:44:45;4.00;;;0.80;;
70829;SDS011;58451;51.550;7.208;2022-09-09T11:47:32;3.90;;;1.00;;
70829;SDS011;58451;51.550;7.208;2022-09-09T11:56:58;3.60;;;0.80;;
70829;SDS011;58451;51.550;7.208;2022-09-09T12:06:11;4.10;;;0.80;;
70829;SDS011;58451;51.550;7.208;2022-09-09T12:12:35;3.70;;;0.90;;
70829;SDS011;58451;51.550;7.208;2022-09-09T12:19:05;3.40;;;0.70;;
70829;SDS011;58451;51.550;7.208;2022-09-09T12:59:27;4.00;;;0.80;;
70829;SDS011;58451;51.550;7.208;2022-09-09T13:02:18;3.90;;;0.90;;
70829;SDS011;58451;51.550;7.208;2022-09-09T13:04:46;4.20;;;0.70;;
70829;SDS011;58451;51.550;7.208;2022-09-09T13:07:20;3.50;;;0.70;;
70829;SDS011;58451;51.550;7.208;2022-09-09T13:09:49;3.10;;;1.00;;
70829;SDS011;58451;51.550;7.208;2022-09-09T13:12:21;4.60;;;0.90;;
70829;SDS011;58451;51.550;7.208;2022-09-09T13:14:56;5.10;;;1.00;;
70829;SDS011;58451;51.550;7.208;2022-09-09T13:17:26;1.90;;;0.80;;
70829;SDS011;58451;51.550;7.208;2022-09-09T13:19:58;4.00;;;0.50;;
70829;SDS011;58451;51.550;7.208;2022-09-09T13:25:13;4.30;;;0.80;;
70829;SDS011;58451;51.550;7.208;2022-09-09T13:30:35;5.00;;;0.80;;
70829;SDS011;58451;51.550;7.208;2022-09-09T13:33:21;3.20;;;0.80;;
70829;SDS011;58451;51.550;7.208;2022-09-09T13:35:57;3.20;;;0.50;;
70829;SDS011;58451;51.550;7.208;2022-09-09T13:38:56;2.30;;;0.50;;
70829;SDS011;58451;51.550;7.208;2022-09-09T13:41:34;3.90;;;0.50;;
70829;SDS011;58451;51.550;7.208;2022-09-09T13:44:05;2.80;;;0.50;;
70829;SDS011;58451;51.550;7.208;2022-09-09T13:46:39;2.30;;;0.50;;
70829;SDS011;58451;51.550;7.208;2022-09-09T13:51:43;3.90;;;0.60;;
70829;SDS011;58451;51.550;7.208;2022-09-09T13:54:16;3.40;;;0.80;;
70829;SDS011;58451;51.550;7.208;2022-09-09T13:56:48;3.00;;;0.70;;
70829;SDS011;58451;51.550;7.208;2022-09-09T13:59:19;2.70;;;0.70;;
70829;SDS011;58451;51.550;7.208;2022-09-09T14:01:48;4.30;;;1.00;;
70829;SDS011;58451;51.550;7.208;2022-09-09T14:04:19;6.00;;;0.90;;
70829;SDS011;58451;51.550;7.208;2022-09-09T14:06:49;5.00;;;1.00;;
70829;SDS011;58451;51.550;7.208;2022-09-09T14:09:18;2.80;;;0.40;;
70829;SDS011;58451;51.550;7.208;2022-09-09T14:11:46;3.50;;;0.70;;
70829;SDS011;58451;51.550;7.208;2022-09-09T14:14:13;4.80;;;0.80;;
70829;SDS011;58451;51.550;7.208;2022-09-09T14:16:41;6.50;;;1.20;;
70829;SDS011;58451;51.550;7.208;2022-09-09T14:19:08;4.50;;;1.00;;
70829;SDS011;58451;51.550;7.208;2022-09-09T14:21:36;3.70;;;0.90;;
70829;SDS011;58451;51.550;7.208;2022-09-09T14:24:03;3.20;;;0.70;;
70829;SDS011;58451;51.550;7.208;2022-09-09T14:26:30;4.40;;;1.20;;
70829;SDS011;58451;51.550;7.208;2022-09-09T14:28:58;4.00;;;1.00;;
70829;SDS011;58451;51.550;7.208;2022-09-09T14:31:25;2.60;;;0.90;;
70829;SDS011;58451;51.550;7.208;2022-09-09T14:33:54;4.00;;;1.00;;
70829;SDS011;58451;51.550;7.208;2022-09-09T14:36:22;3.70;;;0.90;;
70829;SDS011;58451;51.550;7.208;2022-09-09T14:38:50;4.20;;;1.10;;
70829;SDS011;58451;51.550;7.208;2022-09-09T14:41:19;5.30;;;2.20;;
70829;SDS011;58451;51.550;7.208;2022-09-09T14:43:49;6.00;;;1.70;;
70829;SDS011;58451;51.550;7.208;2022-09-09T14:46:19;4.00;;;1.20;;
70829;SDS011;58451;51.550;7.208;2022-09-09T14:48:52;3.60;;;1.00;;
70829;SDS011;58451;51.550;7.208;2022-09-09T14:51:26;4.00;;;1.10;;
70829;SDS011;58451;51.550;7.208;2022-09-09T14:53:57;4.60;;;1.20;;
70829;SDS011;58451;51.550;7.208;2022-09-09T14:56:28;6.50;;;1.20;;
70829;SDS011;58451;51.550;7.208;2022-09-09T14:58:59;4.20;;;1.70;;
70829;SDS011;58451;51.550;7.208;2022-09-09T15:01:28;3.80;;;1.20;;
70829;SDS011;58451;51.550;7.208;2022-09-09T15:04:03;4.10;;;1.20;;
70829;SDS011;58451;51.550;7.208;2022-09-09T15:06:34;7.10;;;1.50;;
70829;SDS011;58451;51.550;7.208;2022-09-09T15:09:09;4.60;;;1.00;;
70829;SDS011;58451;51.550;7.208;2022-09-09T15:11:37;5.30;;;1.10;;
70829;SDS011;58451;51.550;7.208;2022-09-09T15:14:07;4.10;;;1.30;;
70829;SDS011;58451;51.550;7.208;2022-09-09T15:16:37;4.90;;;1.10;;
70829;SDS011;58451;51.550;7.208;2022-09-09T15:19:05;6.10;;;1.00;;
70829;SDS011;58451;51.550;7.208;2022-09-09T15:21:36;4.10;;;0.90;;
70829;SDS011;58451;51.550;7.208;2022-09-09T15:24:08;4.80;;;1.20;;
70829;SDS011;58451;51.550;7.208;2022-09-09T15:26:35;10.90;;;1.00;;
70829;SDS011;58451;51.550;7.208;2022-09-09T15:29:06;3.40;;;0.60;;
70829;SDS011;58451;51.550;7.208;2022-09-09T15:31:36;3.00;;;0.50;;
70829;SDS011;58451;51.550;7.208;2022-09-09T15:34:05;2.10;;;0.40;;
70829;SDS011;58451;51.550;7.208;2022-09-09T15:36:42;1.30;;;0.20;;
70829;SDS011;58451;51.550;7.208;2022-09-09T15:39:17;1.30;;;0.30;;
70829;SDS011;58451;51.550;7.208;2022-09-09T15:41:46;2.40;;;0.40;;
70829;SDS011;58451;51.550;7.208;2022-09-09T15:44:16;4.10;;;0.50;;
70829;SDS011;58451;51.550;7.208;2022-09-09T15:46:45;4.10;;;0.40;;
70829;SDS011;58451;51.550;7.208;2022-09-09T15:49:25;2.90;;;0.40;;
70829;SDS011;58451;51.550;7.208;2022-09-09T15:51:55;2.90;;;0.50;;
70829;SDS011;58451;51.550;7.208;2022-09-09T15:54:25;2.00;;;0.40;;
70829;SDS011;58451;51.550;7.208;2022-09-09T15:56:56;4.50;;;0.50;;
70829;SDS011;58451;51.550;7.208;2022-09-09T15:59:27;5.30;;;0.70;;
70829;SDS011;58451;51.550;7.208;2022-09-09T16:01:56;4.00;;;0.70;;
70829;SDS011;58451;51.550;7.208;2022-09-09T16:04:26;2.30;;;0.50;;
70829;SDS011;58451;51.550;7.208;2022-09-09T16:07:02;2.00;;;0.50;;
70829;SDS011;58451;51.550;7.208;2022-09-09T16:09:32;2.70;;;0.40;;
70829;SDS011;58451;51.550;7.208;2022-09-09T16:12:03;2.60;;;0.40;;
70829;SDS011;58451;51.550;7.208;2022-09-09T16:14:36;1.30;;;0.30;;
70829;SDS011;58451;51.550;7.208;2022-09-09T16:17:04;1.40;;;0.40;;
70829;SDS011;58451;51.550;7.208;2022-09-09T16:19:33;1.90;;;0.40;;
70829;SDS011;58451;51.550;7.208;2022-09-09T16:22:02;1.70;;;0.40;;
70829;SDS011;58451;51.550;7.208;2022-09-09T16:24:31;1.60;;;0.40;;
70829;SDS011;58451;51.550;7.208;2022-09-09T16:26:58;1.30;;;0.40;;
70829;SDS011;58451;51.550;7.208;2022-09-09T16:29:25;1.70;;;0.50;;
70829;SDS011;58451;51.550;7.208;2022-09-09T16:31:55;2.30;;;0.40;;
70829;SDS011;58451;51.550;7.208;2022-09-09T16:34:31;2.40;;;0.50;;
70829;SDS011;58451;51.550;7.208;2022-09-09T16:37:00;2.90;;;0.50;;
70829;SDS011;58451;51.550;7.208;2022-09-09T16:39:28;2.20;;;0.50;;
70829;SDS011;58451;51.550;7.208;2022-09-09T16:41:55;2.20;;;0.40;;
70829;SDS011;58451;51.550;7.208;2022-09-09T16:44:23;2.40;;;0.50;;
70829;SDS011;58451;51.550;7.208;2022-09-09T16:46:52;1.20;;;0.40;;
70829;SDS011;58451;51.550;7.208;2022-09-09T16:49:25;2.70;;;0.40;;
70829;SDS011;58451;51.550;7.208;2022-09-09T16:51:57;1.80;;;0.40;;
70829;SDS011;58451;51.550;7.208;2022-09-09T16:54:26;1.60;;;0.40;;
70829;SDS011;58451;51.550;7.208;2022-09-09T16:56:56;1.30;;;0.40;;
70829;SDS011;58451;51.550;7.208;2022-09-09T16:59:24;2.20;;;0.50;;
70829;SDS011;58451;51.550;7.208;2022-09-09T17:01:52;3.10;;;0.40;;
70829;SDS011;58451;51.550;7.208;2022-09-09T17:04:25;1.70;;;0.40;;
70829;SDS011;58451;51.550;7.208;2022-09-09T17:06:56;2.60;;;0.40;;
70829;SDS011;58451;51.550;7.208;2022-09-09T17:09:25;2.50;;;0.50;;
70829;SDS011;58451;51.550;7.208;2022-09-09T17:11:56;2.20;;;0.50;;
70829;SDS011;58451;51.550;7.208;2022-09-09T17:14:23;3.90;;;0.60;;
70829;SDS011;58451;51.550;7.208;2022-09-09T17:16:50;3.50;;;0.60;;
70829;SDS011;58451;51.550;7.208;2022-09-09T17:19:18;1.60;;;0.50;;
70829;SDS011;58451;51.550;7.208;2022-09-09T17:21:45;3.20;;;0.60;;
70829;SDS011;58451;51.550;7.208;2022-09-09T17:24:34;2.90;;;0.50;;
70829;SDS011;58451;51.550;7.208;2022-09-09T17:27:03;4.40;;;0.60;;
70829;SDS011;58451;51.550;7.208;2022-09-09T17:29:31;2.80;;;0.60;;
70829;SDS011;58451;51.550;7.208;2022-09-09T17:31:59;3.40;;;0.50;;
70829;SDS011;58451;51.550;7.208;2022-09-09T17:34:26;4.00;;;0.70;;
70829;SDS011;58451;51.550;7.208;2022-09-09T17:36:53;2.70;;;0.50;;
70829;SDS011;58451;51.550;7.208;2022-09-09T17:39:21;3.00;;;0.90;;
70829;SDS011;58451;51.550;7.208;2022-09-09T17:41:48;2.70;;;0.60;;
70829;SDS011;58451;51.550;7.208;2022-09-09T17:44:15;2.80;;;0.70;;
70829;SDS011;58451;51.550;7.208;2022-09-09T17:46:43;2.30;;;0.60;;
70829;SDS011;58451;51.550;7.208;2022-09-09T17:49:14;3.50;;;0.70;;
70829;SDS011;58451;51.550;7.208;2022-09-09T17:51:44;1.70;;;0.60;;
70829;SDS011;58451;51.550;7.208;2022-09-09T17:54:16;3.20;;;0.70;;
70829;SDS011;58451;51.550;7.208;2022-09-09T17:56:46;3.70;;;0.70;;
70829;SDS011;58451;51.550;7.208;2022-09-09T17:59:15;2.80;;;0.70;;
70829;SDS011;58451;51.550;7.208;2022-09-09T18:01:46;4.50;;;0.80;;
70829;SDS011;58451;51.550;7.208;2022-09-09T18:04:16;4.30;;;1.00;;
70829;SDS011;58451;51.550;7.208;2022-09-09T18:06:46;2.80;;;0.80;;
70829;SDS011;58451;51.550;7.208;2022-09-09T18:09:19;4.90;;;0.90;;
70829;SDS011;58451;51.550;7.208;2022-09-09T18:11:51;4.10;;;0.80;;
70829;SDS011;58451;51.550;7.208;2022-09-09T18:14:25;2.90;;;0.70;;
70829;SDS011;58451;51.550;7.208;2022-09-09T18:16:58;2.50;;;0.60;;
70829;SDS011;58451;51.550;7.208;2022-09-09T18:19:28;4.10;;;0.70;;
70829;SDS011;58451;51.550;7.208;2022-09-09T18:22:05;2.40;;;0.70;;
70829;SDS011;58451;51.550;7.208;2022-09-09T18:24:33;3.50;;;0.70;;
70829;SDS011;58451;51.550;7.208;2022-09-09T18:27:01;2.90;;;0.90;;
70829;SDS011;58451;51.550;7.208;2022-09-09T18:29:30;2.30;;;0.70;;
70829;SDS011;58451;51.550;7.208;2022-09-09T18:31:58;3.90;;;0.90;;
70829;SDS011;58451;51.550;7.208;2022-09-09T18:34:27;4.40;;;1.00;;
70829;SDS011;58451;51.550;7.208;2022-09-09T18:36:56;3.50;;;0.80;;
70829;SDS011;58451;51.550;7.208;2022-09-09T18:39:27;3.90;;;1.00;;
70829;SDS011;58451;51.550;7.208;2022-09-09T18:41:57;3.90;;;0.80;;
70829;SDS011;58451;51.550;7.208;2022-09-09T18:44:30;4.00;;;0.90;;
70829;SDS011;58451;51.550;7.208;2022-09-09T18:47:00;5.00;;;1.30;;
70829;SDS011;58451;51.550;7.208;2022-09-09T18:49:29;3.90;;;0.90;;
70829;SDS011;58451;51.550;7.208;2022-09-09T18:51:58;3.90;;;0.80;;
70829;SDS011;58451;51.550;7.208;2022-09-09T18:54:27;3.50;;;0.90;;
70829;SDS011;58451;51.550;7.208;2022-09-09T18:56:56;5.10;;;0.80;;
70829;SDS011;58451;51.550;7.208;2022-09-09T18:59:27;3.30;;;0.90;;